Terminal Aerodrome Forecast
Issued by NWS

Home | Current Version | Previous Version | Text Only | Print | Product List | Glossary On
Versions: 1 2 3 4 5 6 7 8 9 10 11 12 13 14 15 16 17 18 19 20 21 22 23 24 25 26 27 28 29
000
FTUS46 KPQR 280252 AAA
TAFONP
TAF AMD
KONP 280252Z 2803/2824 35013KT P6SM SKC
     FM280400 35006KT P6SM SKC
     FM281000 35004KT 6SM BR FEW002
      TEMPO 2810/2813 2SM BR BKN002
     FM281500 34009KT P6SM SKC=

USA.gov is the U.S. government's official web portal to all federal, state and local government web resources and services.